Tombarra — MPRD6 — position and weather

sailwx.info

Track history (hours):
 
Tides and Currents Weather Stations Pressure Air Temp Water Temp Dewpoint Dewpoint Depression Visibility Wind Speed Wind Dir Waves Ship Positions

Tombarra

Last reported at 2014-Dec-15 18:26 UTC. Time now 2014-Dec-23 03:02 UTC.
Position S 25°50' E 153°38'.

Length 199 m; draft 8.8 m.

Type: Ship. MMSI: 232971000.

Date/timePositionNaut miles runAvg speedWind from/ knotsBaromVisibWave heightAir tempDewpointWater temp
2014-Dec-15 18:26S 25°50' E 153°38'3718.9
2014-Dec-15 16:28S 26°26' E 153°28'1617.8
2014-Dec-15 15:33S 26°39' E 153°17'1313.2
2014-Dec-15 14:34S 26°50' E 153°09'1717.4
2014-Dec-15 13:33S 27°05' E 153°19'1414.5
2014-Dec-15 12:33S 27°19' E 153°12'5 4.6
2014-Dec-15 11:34S 27°23' E 153°10'0 0.0
2014-Dec-15 10:34S 27°23' E 153°10'0 0.0
2014-Dec-15 09:34S 27°23' E 153°10'0 0.0
2014-Dec-15 08:34S 27°23' E 153°10'0 0.0
2014-Dec-15 07:34S 27°23' E 153°10'0 0.0
2014-Dec-15 06:34S 27°23' E 153°10'0 0.0
2014-Dec-15 05:34S 27°23' E 153°10'0 0.0
2014-Dec-15 04:34S 27°23' E 153°10'0 0.0
2014-Dec-15 03:33S 27°23' E 153°10'4 3.6
2014-Dec-15 02:34S 27°20' E 153°12'6 6.2
2014-Dec-15 01:33S 27°16' E 153°17'1111.4
2014-Dec-15 00:33S 27°04' E 153°18'1716.8
2014-Dec-14 23:34S 26°50' E 153°09'7 7.1
2014-Dec-14 22:34S 26°45' E 153°15'6 6.1
2014-Dec-14 21:34S 26°48' E 153°21'1313.2
2014-Dec-14 20:34S 26°54' E 153°34'1413.9
2014-Dec-14 19:33S 27°03' E 153°46'1616.5
2014-Dec-14 18:33S 27°19' E 153°48'1615.7
2014-Dec-14 17:33S 27°35' E 153°50'1515.4
2014-Dec-14 16:33S 27°50' E 153°52'1515.2
2014-Dec-14 15:33S 28°05' E 153°54'26514.5
2014-Dec-13 21:19S 32°26' E 152°58'1317.3
2014-Dec-13 20:34S 32°37' E 152°51'1717.1
2014-Dec-13 19:34S 32°51' E 152°39'1716.6
2014-Dec-13 18:34S 33°05' E 152°27'1716.6
2014-Dec-13 17:32S 33°18' E 152°16'5316.6
2014-Dec-13 14:22S 34°00' E 151°37'200 6.4
2014-Dec-12 07:16S 37°09' E 150°17'1217.4
2014-Dec-12 06:33S 37°21' E 150°13'1616.2
2014-Dec-12 05:33S 37°36' E 150°03'1615.9
2014-Dec-12 04:33S 37°46' E 149°48'1616.2
2014-Dec-12 03:33S 37°57' E 149°32'3516.6
2014-Dec-12 01:28S 38°20' E 148°60'1516.4
2014-Dec-12 00:33S 38°30' E 148°45'5817.5
2014-Dec-11 21:15S 38°56' E 147°40'1218.1
2014-Dec-11 20:34S 39°01' E 147°25'1817.5
2014-Dec-11 19:33S 39°07' E 147°04'1616.5
2014-Dec-11 18:34S 39°13' E 146°44'1616.1
2014-Dec-11 17:32S 39°16' E 146°23'1515.8
2014-Dec-11 16:34S 39°12' E 146°04'1616.3
2014-Dec-11 15:34S 39°03' E 145°46'1716.1
2014-Dec-11 14:30S 38°53' E 145°28'4410.3
2014-Dec-11 10:11S 38°20' E 144°51'11 0.4
2014-Dec-10 06:30S 38°18' E 144°37'1614.5
2014-Dec-10 05:23S 38°29' E 144°22'3418.4
2014-Dec-10 03:32S 38°50' E 143°48'1818.5
2014-Dec-10 02:33S 38°59' E 143°28'1818.4
2014-Dec-10 01:33S 38°59' E 143°04'2018.6
2014-Dec-10 00:27S 38°58' E 142°38'1718.5
2014-Dec-09 23:32S 38°58' E 142°16'1818.5
2014-Dec-09 22:33S 38°57' E 141°53'1818.2
2014-Dec-09 21:33S 38°56' E 141°29'1818.1
2014-Dec-09 20:33S 38°55' E 141°06'1918.4
2014-Dec-09 19:33S 38°55' E 140°43'1918.4
2014-Dec-09 18:31S 38°54' E 140°18'1718.0
2014-Dec-09 17:33S 38°52' E 139°56'1918.2
2014-Dec-09 16:32S 38°50' E 139°32'1918.4
2014-Dec-09 15:29S 38°47' E 139°08'  
2014-Dec-06 14:20S 32°33' E 114°57'1317.2
2014-Dec-06 13:34S 32°22' E 115°05'1717.2
2014-Dec-06 12:34S 32°07' E 115°15'1615.5
2014-Dec-06 11:34S 31°56' E 115°28'1413.5
2014-Dec-06 10:33S 32°02' E 115°42'3 2.7
2014-Dec-06 09:34S 32°02' E 115°45'0 0.0
2014-Dec-06 08:33S 32°02' E 115°45'0 0.0
2014-Dec-06 07:33S 32°02' E 115°45'  
Track history (hours):
 
Tides and Currents Weather Stations Pressure Air Temp Water Temp Dewpoint Dewpoint Depression Visibility Wind Speed Wind Dir Waves Ship Positions

Tombarra

Last reported at 2014-Dec-15 18:26 UTC. Time now 2014-Dec-23 03:02 UTC.
Position S 25°50' E 153°38'.

Length 199 m; draft 8.8 m.

Type: Ship. MMSI: 232971000.

Date/timePositionNaut miles runAvg speedWind from/ knotsBaromVisibWave heightAir tempDewpointWater temp
2014-Dec-15 18:26S 25°50' E 153°38'3718.9
2014-Dec-15 16:28S 26°26' E 153°28'1617.8
2014-Dec-15 15:33S 26°39' E 153°17'1313.2
2014-Dec-15 14:34S 26°50' E 153°09'1717.4
2014-Dec-15 13:33S 27°05' E 153°19'1414.5
2014-Dec-15 12:33S 27°19' E 153°12'5 4.6
2014-Dec-15 11:34S 27°23' E 153°10'0 0.0
2014-Dec-15 10:34S 27°23' E 153°10'0 0.0
2014-Dec-15 09:34S 27°23' E 153°10'0 0.0
2014-Dec-15 08:34S 27°23' E 153°10'0 0.0
2014-Dec-15 07:34S 27°23' E 153°10'0 0.0
2014-Dec-15 06:34S 27°23' E 153°10'0 0.0
2014-Dec-15 05:34S 27°23' E 153°10'0 0.0
2014-Dec-15 04:34S 27°23' E 153°10'0 0.0
2014-Dec-15 03:33S 27°23' E 153°10'4 3.6
2014-Dec-15 02:34S 27°20' E 153°12'6 6.2
2014-Dec-15 01:33S 27°16' E 153°17'1111.4
2014-Dec-15 00:33S 27°04' E 153°18'1716.8
2014-Dec-14 23:34S 26°50' E 153°09'7 7.1
2014-Dec-14 22:34S 26°45' E 153°15'6 6.1
2014-Dec-14 21:34S 26°48' E 153°21'1313.2
2014-Dec-14 20:34S 26°54' E 153°34'1413.9
2014-Dec-14 19:33S 27°03' E 153°46'1616.5
2014-Dec-14 18:33S 27°19' E 153°48'1615.7
2014-Dec-14 17:33S 27°35' E 153°50'1515.4
2014-Dec-14 16:33S 27°50' E 153°52'1515.2
2014-Dec-14 15:33S 28°05' E 153°54'26514.5
2014-Dec-13 21:19S 32°26' E 152°58'1317.3
2014-Dec-13 20:34S 32°37' E 152°51'1717.1
2014-Dec-13 19:34S 32°51' E 152°39'1716.6
2014-Dec-13 18:34S 33°05' E 152°27'1716.6
2014-Dec-13 17:32S 33°18' E 152°16'5316.6
2014-Dec-13 14:22S 34°00' E 151°37'200 6.4
2014-Dec-12 07:16S 37°09' E 150°17'1217.4
2014-Dec-12 06:33S 37°21' E 150°13'1616.2
2014-Dec-12 05:33S 37°36' E 150°03'1615.9
2014-Dec-12 04:33S 37°46' E 149°48'1616.2
2014-Dec-12 03:33S 37°57' E 149°32'3516.6
2014-Dec-12 01:28S 38°20' E 148°60'1516.4
2014-Dec-12 00:33S 38°30' E 148°45'5817.5
2014-Dec-11 21:15S 38°56' E 147°40'1218.1
2014-Dec-11 20:34S 39°01' E 147°25'1817.5
2014-Dec-11 19:33S 39°07' E 147°04'1616.5
2014-Dec-11 18:34S 39°13' E 146°44'1616.1
2014-Dec-11 17:32S 39°16' E 146°23'1515.8
2014-Dec-11 16:34S 39°12' E 146°04'1616.3
2014-Dec-11 15:34S 39°03' E 145°46'1716.1
2014-Dec-11 14:30S 38°53' E 145°28'4410.3
2014-Dec-11 10:11S 38°20' E 144°51'11 0.4
2014-Dec-10 06:30S 38°18' E 144°37'1614.5
2014-Dec-10 05:23S 38°29' E 144°22'3418.4
2014-Dec-10 03:32S 38°50' E 143°48'1818.5
2014-Dec-10 02:33S 38°59' E 143°28'1818.4
2014-Dec-10 01:33S 38°59' E 143°04'2018.6
2014-Dec-10 00:27S 38°58' E 142°38'1718.5
2014-Dec-09 23:32S 38°58' E 142°16'1818.5
2014-Dec-09 22:33S 38°57' E 141°53'1818.2
2014-Dec-09 21:33S 38°56' E 141°29'1818.1
2014-Dec-09 20:33S 38°55' E 141°06'1918.4
2014-Dec-09 19:33S 38°55' E 140°43'1918.4
2014-Dec-09 18:31S 38°54' E 140°18'1718.0
2014-Dec-09 17:33S 38°52' E 139°56'1918.2
2014-Dec-09 16:32S 38°50' E 139°32'1918.4
2014-Dec-09 15:29S 38°47' E 139°08'  
2014-Dec-06 14:20S 32°33' E 114°57'1317.2
2014-Dec-06 13:34S 32°22' E 115°05'1717.2
2014-Dec-06 12:34S 32°07' E 115°15'1615.5
2014-Dec-06 11:34S 31°56' E 115°28'1413.5
2014-Dec-06 10:33S 32°02' E 115°42'3 2.7
2014-Dec-06 09:34S 32°02' E 115°45'0 0.0
2014-Dec-06 08:33S 32°02' E 115°45'0 0.0
2014-Dec-06 07:33S 32°02' E 115°45'  

Dump ship's entire track history